M/V Alton St. Amant — WDE7604 — position and weather

sailwx.info

Track history (hours):
 
Tides and Currents Weather Stations Pressure Air Temp Water Temp Dewpoint Dewpoint Depression Visibility Wind Speed Wind Dir Waves Ship Positions

M/V Alton St. Amant

Owner: The Barge Investment Group Five, L.L.C., Harahan, LA. More information available from US FCC via Universal Licensing System and Coast Guard Vessel Documentation Center.

Last reported at 2017-Nov-24 05:30 UTC. Time now 2017-Nov-24 05:48 UTC.
Position N 29°47' W 095°05'.

Length 25 m; draft 3 m.

Type: Towing. MMSI: 367395270.

Date/timePositionNaut miles runAvg speedWind from/ knotsBaromVisibWave heightAir tempDewpointWater temp
2017-Nov-24 05:30N 29°47' W 095°05'0 0.0
2017-Nov-24 05:00N 29°47' W 095°05'0 0.0
2017-Nov-24 04:30N 29°47' W 095°05'0 0.0
2017-Nov-24 04:00N 29°47' W 095°05'0 0.0
2017-Nov-24 03:30N 29°47' W 095°05'0 0.0
2017-Nov-24 03:00N 29°47' W 095°05'0 0.0
2017-Nov-24 02:30N 29°47' W 095°05'0 0.0
2017-Nov-24 02:00N 29°47' W 095°05'0 0.0
2017-Nov-24 01:30N 29°47' W 095°05'0 0.0
2017-Nov-24 01:00N 29°47' W 095°05'0 0.0
2017-Nov-24 00:30N 29°47' W 095°05'0 0.0
2017-Nov-24 00:00N 29°47' W 095°05'0 0.0
2017-Nov-23 23:30N 29°47' W 095°05'0 0.0
2017-Nov-23 23:00N 29°47' W 095°05'0 0.0
2017-Nov-23 22:29N 29°47' W 095°05'0 0.0
2017-Nov-23 22:00N 29°47' W 095°05'0 0.0
2017-Nov-23 21:30N 29°47' W 095°05'1 0.6
2017-Nov-23 20:16N 29°46' W 095°05'1 2.7
2017-Nov-23 19:59N 29°45' W 095°04'2 4.0
2017-Nov-23 19:23N 29°44' W 095°02'2 5.0
2017-Nov-23 19:00N 29°42' W 095°01'3 5.7
2017-Nov-23 18:30N 29°40' W 094°59'3 6.9
2017-Nov-23 18:00N 29°37' W 094°57'3 6.8
2017-Nov-23 17:30N 29°34' W 094°55'3 6.5
2017-Nov-23 17:00N 29°31' W 094°53'  
2017-Nov-19 21:32N 29°46' W 095°05'0 4.0
2017-Nov-19 21:30N 29°46' W 095°05'2 0.3
2017-Nov-19 14:17N 29°44' W 095°03'0 0.2
2017-Nov-19 14:00N 29°44' W 095°03'0 0.2
2017-Nov-19 13:30N 29°44' W 095°03'0 0.0
2017-Nov-18 11:46N 29°44' W 095°03'0 0.0
2017-Nov-18 11:30N 29°44' W 095°03'0 0.1
2017-Nov-18 11:00N 29°44' W 095°03'1 2.3
2017-Nov-18 10:23N 29°44' W 095°02'2 6.0
2017-Nov-18 10:00N 29°42' W 094°60'3 6.2
2017-Nov-18 09:30N 29°39' W 094°58'4 7.2
2017-Nov-18 09:00N 29°36' W 094°57'4 7.4
2017-Nov-18 08:30N 29°33' W 094°54'59 1.3
2017-Nov-16 11:17N 29°57' W 093°52'0 0.0
2017-Nov-16 10:51N 29°57' W 093°52'0 0.0
2017-Nov-16 10:24N 29°57' W 093°52'0 0.0
2017-Nov-16 10:01N 29°57' W 093°52'0 0.0
2017-Nov-16 09:27N 29°57' W 093°52'0 0.0
2017-Nov-15 04:52N 29°58' W 093°52'  
Track history (hours):
 
Tides and Currents Weather Stations Pressure Air Temp Water Temp Dewpoint Dewpoint Depression Visibility Wind Speed Wind Dir Waves Ship Positions

M/V Alton St. Amant

Owner: The Barge Investment Group Five, L.L.C., Harahan, LA. More information available from US FCC via Universal Licensing System and Coast Guard Vessel Documentation Center.

Last reported at 2017-Nov-24 05:30 UTC. Time now 2017-Nov-24 05:48 UTC.
Position N 29°47' W 095°05'.

Length 25 m; draft 3 m.

Type: Towing. MMSI: 367395270.

Date/timePositionNaut miles runAvg speedWind from/ knotsBaromVisibWave heightAir tempDewpointWater temp
2017-Nov-24 05:30N 29°47' W 095°05'0 0.0
2017-Nov-24 05:00N 29°47' W 095°05'0 0.0
2017-Nov-24 04:30N 29°47' W 095°05'0 0.0
2017-Nov-24 04:00N 29°47' W 095°05'0 0.0
2017-Nov-24 03:30N 29°47' W 095°05'0 0.0
2017-Nov-24 03:00N 29°47' W 095°05'0 0.0
2017-Nov-24 02:30N 29°47' W 095°05'0 0.0
2017-Nov-24 02:00N 29°47' W 095°05'0 0.0
2017-Nov-24 01:30N 29°47' W 095°05'0 0.0
2017-Nov-24 01:00N 29°47' W 095°05'0 0.0
2017-Nov-24 00:30N 29°47' W 095°05'0 0.0
2017-Nov-24 00:00N 29°47' W 095°05'0 0.0
2017-Nov-23 23:30N 29°47' W 095°05'0 0.0
2017-Nov-23 23:00N 29°47' W 095°05'0 0.0
2017-Nov-23 22:29N 29°47' W 095°05'0 0.0
2017-Nov-23 22:00N 29°47' W 095°05'0 0.0
2017-Nov-23 21:30N 29°47' W 095°05'1 0.6
2017-Nov-23 20:16N 29°46' W 095°05'1 2.7
2017-Nov-23 19:59N 29°45' W 095°04'2 4.0
2017-Nov-23 19:23N 29°44' W 095°02'2 5.0
2017-Nov-23 19:00N 29°42' W 095°01'3 5.7
2017-Nov-23 18:30N 29°40' W 094°59'3 6.9
2017-Nov-23 18:00N 29°37' W 094°57'3 6.8
2017-Nov-23 17:30N 29°34' W 094°55'3 6.5
2017-Nov-23 17:00N 29°31' W 094°53'  
2017-Nov-19 21:32N 29°46' W 095°05'0 4.0
2017-Nov-19 21:30N 29°46' W 095°05'2 0.3
2017-Nov-19 14:17N 29°44' W 095°03'0 0.2
2017-Nov-19 14:00N 29°44' W 095°03'0 0.2
2017-Nov-19 13:30N 29°44' W 095°03'0 0.0
2017-Nov-18 11:46N 29°44' W 095°03'0 0.0
2017-Nov-18 11:30N 29°44' W 095°03'0 0.1
2017-Nov-18 11:00N 29°44' W 095°03'1 2.3
2017-Nov-18 10:23N 29°44' W 095°02'2 6.0
2017-Nov-18 10:00N 29°42' W 094°60'3 6.2
2017-Nov-18 09:30N 29°39' W 094°58'4 7.2
2017-Nov-18 09:00N 29°36' W 094°57'4 7.4
2017-Nov-18 08:30N 29°33' W 094°54'59 1.3
2017-Nov-16 11:17N 29°57' W 093°52'0 0.0
2017-Nov-16 10:51N 29°57' W 093°52'0 0.0
2017-Nov-16 10:24N 29°57' W 093°52'0 0.0
2017-Nov-16 10:01N 29°57' W 093°52'0 0.0
2017-Nov-16 09:27N 29°57' W 093°52'0 0.0
2017-Nov-15 04:52N 29°58' W 093°52'  

Dump ship's entire track history